Terminal Aerodrome Forecast
Issued by NWS

Home | Current Version | Previous Version | Text Only | Print | Product List | Glossary On
Versions: 1 2 3 4 5 6 7 8 9 10 11 12 13 14 15
000
FTUS45 KRIW 241800 AAA
TAFLND
TAF AMD
KLND 241857Z 2419/2518 VRB06KT 6SM -SHRA BR SCT015 OVC035
      TEMPO 2419/2423 4SM -SN BR OVC015
     FM242300 31005KT 5SM -SHRA VCTS SCT025 BKN040CB
     FM250300 VRB05KT 3SM -RA BR SCT012 OVC020
     FM251600 VRB06KT P6SM SCT020 BKN045=

USA.gov is the U.S. government's official web portal to all federal, state and local government web resources and services.